Time;durP1;ratioP1;P1;durP2;ratioP2;P2;SDS_P1;SDS_P2;PMS_P1;PMS_P2;Temp;Humidity;BMP_temperature;BMP_pressure;BME280_temperature;BME280_humidity;BME280_pressure;Samples;Min_cycle;Max_cycle;Signal;HPM_P1;HPM_P2
2024/02/15 00:00:40;;;;;;;6.53;3.80;;;;;;;8.36;65.51;101412.91;4961427;28;20033;-70
2024/02/15 00:03:13;;;;;;;7.55;3.72;;;;;;;7.98;66.96;101405.94;5005801;28;20040;-70
2024/02/15 00:05:39;;;;;;;13.90;4.03;;;;;;;8.15;66.42;101408.16;5001401;28;20033;-70
2024/02/15 00:08:05;;;;;;;9.95;4.93;;;;;;;8.50;65.06;101412.59;5004747;28;20063;-70
2024/02/15 00:10:30;;;;;;;9.77;4.15;;;;;;;8.12;66.40;101414.28;4981731;28;20526;-71
2024/02/15 00:12:55;;;;;;;9.73;4.20;;;;;;;8.34;65.67;101411.25;4980505;28;20024;-70
2024/02/15 00:15:21;;;;;;;7.97;4.35;;;;;;;7.81;67.47;101403.66;5009735;28;20072;-70
2024/02/15 00:17:47;;;;;;;15.48;5.60;;;;;;;8.06;66.44;101404.00;4997396;28;20059;-71
2024/02/15 00:20:13;;;;;;;11.10;4.80;;;;;;;8.02;67.01;101407.56;5012658;28;20048;-71
2024/02/15 00:22:41;;;;;;;11.60;5.28;;;;;;;8.31;65.96;101408.69;5000322;28;20128;-72
2024/02/15 00:25:08;;;;;;;10.88;5.03;;;;;;;8.12;66.63;101414.28;5006453;28;21008;-73
2024/02/15 00:27:35;;;;;;;13.15;6.25;;;;;;;8.22;66.28;101419.31;4996188;28;20565;-64
2024/02/15 00:30:02;;;;;;;13.35;4.55;;;;;;;7.38;68.27;101406.16;4985913;28;20071;-63
2024/02/15 00:32:28;;;;;;;16.45;6.00;;;;;;;7.95;67.17;101408.56;5002728;28;20100;-64
2024/02/15 00:34:53;;;;;;;12.55;5.20;;;;;;;7.93;67.30;101407.75;4996029;28;20029;-66
2024/02/15 00:37:19;;;;;;;15.13;5.65;;;;;;;7.86;67.23;101407.00;5007381;28;20114;-66
2024/02/15 00:39:45;;;;;;;11.00;5.65;;;;;;;7.70;67.82;101411.66;5003716;28;20045;-71
2024/02/15 00:42:10;;;;;;;12.73;5.78;;;;;;;7.50;68.19;101417.22;5005585;28;20041;-72
2024/02/15 00:44:39;;;;;;;13.80;6.55;;;;;;;7.97;67.19;101419.81;4990855;28;20738;-73
2024/02/15 00:47:09;;;;;;;17.20;6.80;;;;;;;8.13;66.58;101421.19;4919473;28;20731;-69
2024/02/15 00:49:38;;;;;;;30.70;8.85;;;;;;;7.99;66.49;101423.25;4940938;28;20234;-69
2024/02/15 00:52:05;;;;;;;22.00;8.65;;;;;;;8.05;67.51;101427.47;4939523;28;21512;-66
2024/02/15 00:54:31;;;;;;;24.95;9.07;;;;;;;7.71;68.18;101429.00;4952959;28;20041;-63
2024/02/15 00:56:59;;;;;;;23.52;9.20;;;;;;;7.88;67.49;101415.66;4930825;28;20224;-67
2024/02/15 00:59:25;;;;;;;28.75;9.65;;;;;;;7.57;68.67;101425.78;4985148;28;20025;-66
2024/02/15 01:01:53;;;;;;;34.97;9.98;;;;;;;7.62;68.97;101431.75;4995181;28;20092;-66
2024/02/15 01:04:19;;;;;;;24.25;9.68;;;;;;;8.01;67.32;101431.88;4999421;28;20447;-65
2024/02/15 01:06:44;;;;;;;28.83;9.45;;;;;;;7.97;66.96;101435.44;4998487;28;20123;-66
2024/02/15 01:09:10;;;;;;;30.83;10.65;;;;;;;7.86;68.17;101437.41;5004803;28;21018;-65
2024/02/15 01:11:37;;;;;;;32.65;10.82;;;;;;;7.97;67.72;101429.38;5008450;28;20130;-71
2024/02/15 01:14:03;;;;;;;24.15;10.48;;;;;;;7.81;67.73;101434.03;5001862;28;20032;-71
2024/02/15 01:16:28;;;;;;;28.80;11.20;;;;;;;7.81;67.95;101426.22;5012460;28;20132;-70
2024/02/15 01:18:55;;;;;;;33.05;12.32;;;;;;;7.31;69.91;101434.03;4994789;28;20109;-71
2024/02/15 01:21:22;;;;;;;33.47;12.13;;;;;;;7.01;70.87;101435.41;5009017;28;20069;-69
2024/02/15 01:23:48;;;;;;;35.70;12.60;;;;;;;7.48;68.69;101433.72;5001815;28;20652;-74
2024/02/15 01:26:14;;;;;;;40.35;12.77;;;;;;;7.61;68.61;101422.25;5007166;28;20046;-74
2024/02/15 01:28:42;;;;;;;31.17;13.00;;;;;;;7.84;68.38;101439.16;4991856;28;20036;-75
2024/02/15 01:31:11;;;;;;;36.28;12.98;;;;;;;7.38;69.70;101432.16;5009077;28;20126;-75
2024/02/15 01:33:37;;;;;;;33.80;11.95;;;;;;;7.78;68.31;101431.47;4976087;28;20160;-72
2024/02/15 01:36:04;;;;;;;44.85;12.98;;;;;;;7.50;68.85;101430.22;5003263;28;20040;-71
2024/02/15 01:38:29;;;;;;;35.47;13.75;;;;;;;7.90;67.79;101433.84;5015840;28;20235;-66
2024/02/15 01:40:55;;;;;;;40.28;12.82;;;;;;;7.69;68.62;101435.09;5000114;28;20132;-65
2024/02/15 01:43:20;;;;;;;30.60;11.35;;;;;;;7.98;67.52;101431.06;5013078;28;20038;-65
2024/02/15 01:45:49;;;;;;;36.42;11.32;;;;;;;7.64;68.35;101424.78;5004097;28;20107;-70
2024/02/15 01:48:15;;;;;;;36.83;12.73;;;;;;;7.59;68.54;101429.22;5008952;28;20127;-70
2024/02/15 01:50:42;;;;;;;42.15;13.27;;;;;;;7.53;68.76;101429.28;5009013;28;20040;-71
2024/02/15 01:53:10;;;;;;;35.95;11.98;;;;;;;7.90;67.80;101434.69;4985226;28;20274;-70
2024/02/15 01:55:37;;;;;;;40.15;11.75;;;;;;;8.15;66.86;101427.22;5011429;28;20116;-73
2024/02/15 01:58:03;;;;;;;40.60;12.95;;;;;;;8.13;66.55;101431.63;5004201;28;20099;-70
2024/02/15 02:00:30;;;;;;;37.50;12.55;;;;;;;7.45;68.81;101420.78;5011485;28;20701;-70
2024/02/15 02:03:01;;;;;;;38.38;12.50;;;;;;;8.07;66.88;101413.53;5004811;28;20037;-70
2024/02/15 02:05:30;;;;;;;35.92;12.63;;;;;;;8.05;66.97;101423.13;5009177;28;20072;-72
2024/02/15 02:07:59;;;;;;;38.67;13.27;;;;;;;8.29;66.11;101433.91;5003228;28;20057;-72
2024/02/15 02:10:27;;;;;;;42.97;13.95;;;;;;;7.92;67.28;101429.47;5007872;28;20248;-69
2024/02/15 02:12:53;;;;;;;40.17;13.25;;;;;;;7.93;66.93;101428.56;5003751;28;20053;-66
2024/02/15 02:15:19;;;;;;;41.00;14.45;;;;;;;8.04;67.14;101431.81;5007968;28;20040;-69
2024/02/15 02:17:51;;;;;;;52.17;14.30;;;;;;;7.81;67.90;101434.03;4993013;28;20044;-68
2024/02/15 02:20:16;;;;;;;40.05;14.60;;;;;;;8.13;66.36;101436.81;4976822;28;21451;-71
2024/02/15 02:22:46;;;;;;;43.85;13.48;;;;;;;7.97;66.96;101432.81;4980155;28;20044;-70
2024/02/15 02:25:12;;;;;;;49.05;13.82;;;;;;;7.84;67.48;101434.81;5002370;28;20189;-70
2024/02/15 02:27:39;;;;;;;46.97;14.05;;;;;;;7.80;67.94;101430.56;4997158;28;20051;-70
2024/02/15 02:30:15;;;;;;;46.53;16.05;;;;;;;7.84;67.50;101433.97;5006737;28;20035;-72
2024/02/15 02:32:41;;;;;;;46.55;13.57;;;;;;;7.78;67.56;101423.66;4999122;28;20121;-71
2024/02/15 02:35:07;;;;;;;44.90;13.88;;;;;;;7.62;67.71;101434.34;5003602;28;20041;-70
2024/02/15 02:37:36;;;;;;;38.10;14.05;;;;;;;7.24;69.68;101433.25;5009390;28;20098;-69
2024/02/15 02:40:03;;;;;;;43.63;12.35;;;;;;;7.75;67.93;101432.38;5005929;28;20048;-73
2024/02/15 02:42:28;;;;;;;45.05;13.45;;;;;;;7.57;68.08;101433.59;5005903;28;20098;-67
2024/02/15 02:44:54;;;;;;;38.08;12.57;;;;;;;7.72;68.01;101430.72;5002994;28;20048;-68
2024/02/15 02:47:19;;;;;;;38.17;13.90;;;;;;;7.79;68.11;101425.41;5004103;28;20195;-68
2024/02/15 02:49:45;;;;;;;44.17;13.90;;;;;;;7.73;68.11;101427.25;5014629;28;20710;-67
2024/02/15 02:52:10;;;;;;;45.75;15.23;;;;;;;7.52;69.18;101420.63;4995631;28;20706;-68
2024/02/15 02:54:36;;;;;;;58.50;15.90;;;;;;;7.71;67.75;101425.53;4995162;28;20542;-67
2024/02/15 02:57:01;;;;;;;38.13;12.57;;;;;;;7.91;67.42;101427.75;4998067;28;20127;-67
2024/02/15 02:59:26;;;;;;;34.80;12.10;;;;;;;8.13;66.81;101426.41;5012100;28;20052;-70
2024/02/15 03:01:56;;;;;;;38.03;11.68;;;;;;;8.22;65.98;101430.56;5011648;28;20285;-70
2024/02/15 03:04:22;;;;;;;37.22;13.30;;;;;;;7.76;67.88;101420.22;4995369;28;20045;-70
2024/02/15 03:06:47;;;;;;;35.75;12.85;;;;;;;7.49;69.12;101430.25;5010086;28;20032;-70
2024/02/15 03:09:14;;;;;;;36.70;11.27;;;;;;;8.07;67.40;101431.75;4970925;28;20776;-69
2024/02/15 03:11:40;;;;;;;46.83;12.15;;;;;;;8.08;66.95;101423.06;4946856;28;20060;-69
2024/02/15 03:14:08;;;;;;;46.25;13.88;;;;;;;7.49;68.64;101427.66;4950570;28;20025;-70
2024/02/15 03:16:34;;;;;;;43.03;13.57;;;;;;;7.70;68.07;101431.63;4945307;28;20037;-69
2024/02/15 03:19:09;;;;;;;34.38;12.85;;;;;;;8.17;66.96;101424.59;4941867;28;20649;-70
2024/02/15 03:21:37;;;;;;;39.05;13.88;;;;;;;7.76;67.92;101420.22;4958409;28;20041;-69
2024/02/15 03:24:05;;;;;;;43.83;13.60;;;;;;;7.88;67.57;101422.59;4939511;28;20709;-69
2024/02/15 03:26:38;;;;;;;48.38;14.57;;;;;;;8.11;66.75;101424.72;4963107;28;20126;-68
2024/02/15 03:29:10;;;;;;;38.08;14.27;;;;;;;8.13;66.37;101426.41;4967731;28;20587;-67
2024/02/15 03:31:36;;;;;;;43.30;14.65;;;;;;;7.76;67.96;101433.25;4940627;28;20774;-70
2024/02/15 03:34:05;;;;;;;49.47;15.10;;;;;;;8.11;66.72;101433.41;4997693;28;20779;-69
2024/02/15 03:36:31;;;;;;;44.83;14.00;;;;;;;8.29;66.11;101431.28;4996340;28;20033;-69
2024/02/15 03:38:57;;;;;;;53.17;14.82;;;;;;;7.85;67.33;101433.94;5001356;28;20070;-69
2024/02/15 03:41:22;;;;;;;41.42;13.60;;;;;;;7.97;67.13;101435.44;5007240;28;20546;-71
2024/02/15 03:43:49;;;;;;;52.53;14.77;;;;;;;7.94;67.17;101438.09;5012309;28;20065;-70
2024/02/15 03:46:14;;;;;;;40.08;14.68;;;;;;;7.81;67.46;101434.03;4997210;28;20037;-70
2024/02/15 03:48:44;;;;;;;44.63;14.10;;;;;;;8.02;66.72;101437.94;4992618;28;20037;-70
2024/02/15 03:51:09;;;;;;;48.83;13.18;;;;;;;8.04;66.64;101447.44;4996810;28;20128;-69
2024/02/15 03:53:37;;;;;;;45.92;13.85;;;;;;;8.03;67.28;101439.66;5008098;28;20094;-68
2024/02/15 03:56:04;;;;;;;33.60;13.82;;;;;;;8.07;66.79;101426.56;4996539;28;20048;-67
2024/02/15 03:58:32;;;;;;;40.78;14.35;;;;;;;8.25;66.11;101429.63;5007550;28;20061;-68
2024/02/15 04:00:59;;;;;;;43.45;14.27;;;;;;;7.82;67.12;101438.34;4998559;28;20715;-66
2024/02/15 04:03:24;;;;;;;38.45;13.38;;;;;;;8.09;66.38;101435.19;5005448;28;20756;-69
2024/02/15 04:05:50;;;;;;;40.33;13.35;;;;;;;7.68;67.28;101431.66;5007789;28;20041;-69
2024/02/15 04:08:16;;;;;;;34.63;12.70;;;;;;;7.41;69.32;101432.13;4998015;28;20102;-69
2024/02/15 04:10:42;;;;;;;38.65;11.32;;;;;;;8.10;66.92;101433.44;5011835;28;20037;-69
2024/02/15 04:13:07;;;;;;;30.90;11.70;;;;;;;7.73;67.24;101437.66;4999169;28;20032;-69
2024/02/15 04:15:33;;;;;;;32.45;11.18;;;;;;;8.19;66.46;101435.84;5004739;28;20071;-68
2024/02/15 04:18:00;;;;;;;25.80;11.20;;;;;;;8.34;65.41;101439.88;4989634;28;20555;-68
2024/02/15 04:20:26;;;;;;;37.80;11.30;;;;;;;8.26;65.56;101442.63;5002127;28;20517;-69
2024/02/15 04:22:52;;;;;;;35.17;11.82;;;;;;;8.13;65.70;101442.03;5007750;28;20037;-71
2024/02/15 04:25:20;;;;;;;28.40;10.38;;;;;;;8.36;65.64;101441.56;4996239;28;20026;-70
2024/02/15 04:27:49;;;;;;;33.08;10.48;;;;;;;7.42;67.96;101437.31;5008158;28;20033;-71
2024/02/15 04:30:15;;;;;;;28.35;10.95;;;;;;;7.72;67.62;101441.13;4996026;28;20568;-66
2024/02/15 04:32:41;;;;;;;36.45;11.57;;;;;;;8.00;66.26;101447.53;5005574;28;20478;-67
2024/02/15 04:35:06;;;;;;;29.70;10.73;;;;;;;8.03;66.53;101445.72;4977201;28;20028;-66
2024/02/15 04:37:34;;;;;;;27.80;9.13;;;;;;;8.14;66.04;101448.97;5008473;28;20649;-67
2024/02/15 04:40:07;;;;;;;27.88;9.85;;;;;;;8.09;66.25;101445.63;5004930;28;20056;-67
2024/02/15 04:42:34;;;;;;;27.23;9.35;;;;;;;8.35;65.72;101442.44;5008451;28;20414;-69
2024/02/15 04:45:01;;;;;;;20.48;9.20;;;;;;;8.19;65.81;101441.06;5004740;28;20116;-69
2024/02/15 04:47:26;;;;;;;24.52;9.65;;;;;;;8.03;66.30;101437.91;5006429;28;20036;-70
2024/02/15 04:49:52;;;;;;;30.58;9.45;;;;;;;8.19;65.67;101440.22;5006514;28;20107;-72
2024/02/15 04:52:17;;;;;;;29.38;9.90;;;;;;;7.88;66.21;101440.81;5001883;28;20041;-72
2024/02/15 04:54:44;;;;;;;27.45;9.75;;;;;;;7.90;66.92;101447.72;4990498;28;20625;-70
2024/02/15 04:57:11;;;;;;;22.42;7.70;;;;;;;7.93;66.87;101446.78;4994568;28;20033;-65
2024/02/15 04:59:37;;;;;;;23.60;10.20;;;;;;;7.83;66.84;101453.06;5008523;28;20138;-74
2024/02/15 05:02:03;;;;;;;33.85;8.93;;;;;;;7.78;67.63;101449.69;4984789;28;20511;-70
2024/02/15 05:04:28;;;;;;;33.65;9.20;;;;;;;7.79;67.16;101452.25;5004267;28;20037;-70
2024/02/15 05:06:56;;;;;;;23.65;9.95;;;;;;;8.23;65.78;101447.06;5000248;28;20045;-69
2024/02/15 05:09:22;;;;;;;23.25;9.18;;;;;;;8.09;66.49;101442.13;5001986;28;22738;-70
2024/02/15 05:11:48;;;;;;;18.55;7.38;;;;;;;8.25;65.88;101440.06;5013106;28;20045;-69
2024/02/15 05:14:19;;;;;;;19.63;8.05;;;;;;;7.67;67.43;101437.75;5000478;28;20088;-70
2024/02/15 05:16:48;;;;;;;25.58;7.78;;;;;;;8.26;65.52;101434.81;5011895;28;20036;-73
2024/02/15 05:19:16;;;;;;;22.15;8.73;;;;;;;8.27;65.81;101438.28;4981631;28;20032;-66
2024/02/15 05:21:44;;;;;;;22.90;9.18;;;;;;;7.93;66.51;101426.81;5010054;28;20143;-66
2024/02/15 05:24:16;;;;;;;22.20;8.60;;;;;;;8.28;65.55;101434.81;4999891;28;20044;-66
2024/02/15 05:26:43;;;;;;;25.65;9.10;;;;;;;8.15;66.34;101422.03;5010334;28;20033;-65
2024/02/15 05:29:11;;;;;;;26.05;8.80;;;;;;;8.40;65.18;101434.53;5003561;28;20044;-65
2024/02/15 05:31:37;;;;;;;15.98;7.75;;;;;;;8.23;65.91;101434.06;4997895;28;20627;-69
2024/02/15 05:34:07;;;;;;;27.50;7.97;;;;;;;8.20;65.87;101431.50;5005415;28;20561;-69
2024/02/15 05:36:33;;;;;;;21.30;8.52;;;;;;;8.03;66.54;101427.50;5008021;28;20040;-68
2024/02/15 05:38:59;;;;;;;27.45;7.13;;;;;;;8.20;66.27;101428.88;5002713;28;20041;-70
2024/02/15 05:41:25;;;;;;;24.70;7.90;;;;;;;8.00;66.38;101424.09;4987024;28;20809;-74
2024/02/15 05:43:54;;;;;;;23.98;7.90;;;;;;;8.02;66.57;101412.75;5015130;28;20127;-71
2024/02/15 05:46:22;;;;;;;28.73;9.70;;;;;;;7.83;67.52;101411.44;4991283;28;20116;-72
2024/02/15 05:48:48;;;;;;;22.77;7.28;;;;;;;8.02;66.98;101412.75;5012045;28;20025;-72
2024/02/15 05:51:15;;;;;;;16.60;7.22;;;;;;;8.36;65.85;101406.84;5003402;28;20386;-75
2024/02/15 05:53:41;;;;;;;19.45;7.30;;;;;;;8.30;66.20;101404.38;5022456;28;20025;-77
2024/02/15 05:56:07;;;;;;;30.40;7.20;;;;;;;8.01;66.75;101403.25;4986546;28;20064;-66
2024/02/15 05:58:33;;;;;;;17.75;7.00;;;;;;;8.21;65.73;101400.22;5010411;28;20039;-72
2024/02/15 06:01:02;;;;;;;20.13;7.18;;;;;;;8.38;65.47;101397.22;5013441;28;20544;-76
2024/02/15 06:03:28;;;;;;;15.32;6.55;;;;;;;8.53;64.92;101389.06;5012156;28;20550;-77
2024/02/15 06:05:58;;;;;;;20.40;7.95;;;;;;;8.27;65.96;101392.28;5011103;28;20550;-75
2024/02/15 06:08:30;;;;;;;16.70;6.80;;;;;;;8.34;65.90;101400.81;4990399;28;20501;-75
2024/02/15 06:10:55;;;;;;;19.88;7.28;;;;;;;7.90;67.17;101397.41;5014986;28;20494;-78
2024/02/15 06:13:25;;;;;;;19.17;7.80;;;;;;;7.94;66.89;101401.66;5003880;28;20044;-73
2024/02/15 06:15:54;;;;;;;12.07;6.25;;;;;;;8.27;66.46;101391.41;5008491;28;20713;-69
2024/02/15 06:18:25;;;;;;;19.77;7.22;;;;;;;8.38;65.94;101399.84;4993414;28;20037;-74
2024/02/15 06:20:51;;;;;;;14.37;7.10;;;;;;;8.10;67.18;101395.25;5009195;28;20624;-76
2024/02/15 06:23:17;;;;;;;17.90;7.50;;;;;;;7.87;67.57;101395.72;4991054;28;20039;-77
2024/02/15 06:25:43;;;;;;;13.88;6.93;;;;;;;8.54;65.63;101390.78;5014036;28;20527;-77
2024/02/15 06:41:49;;;;;;;18.85;7.50;;;;;;;8.82;64.39;101394.53;5010667;28;20119;-72
2024/02/15 06:44:14;;;;;;;18.30;8.02;;;;;;;8.92;64.03;101396.03;5006429;28;20495;-74
2024/02/15 06:46:41;;;;;;;22.95;7.47;;;;;;;8.94;63.81;101394.22;5008425;28;20040;-69
2024/02/15 06:49:06;;;;;;;21.45;8.45;;;;;;;8.63;65.29;101400.16;5010641;28;20111;-65
2024/02/15 06:51:32;;;;;;;15.70;7.35;;;;;;;8.90;64.18;101401.25;4998192;28;20041;-71
2024/02/15 06:53:57;;;;;;;19.45;7.82;;;;;;;8.84;64.17;101406.63;5011164;28;20071;-73
2024/02/15 06:56:23;;;;;;;23.30;9.20;;;;;;;8.62;65.10;101402.78;4972331;28;20111;-72
2024/02/15 06:58:50;;;;;;;24.30;8.73;;;;;;;8.82;64.79;101408.41;5008529;28;20502;-73
2024/02/15 07:01:16;;;;;;;20.23;8.95;;;;;;;8.86;64.68;101401.38;5001331;28;20275;-70
2024/02/15 07:03:45;;;;;;;17.10;7.53;;;;;;;8.88;64.06;101399.59;5013336;28;20584;-68
2024/02/15 07:06:13;;;;;;;26.73;9.48;;;;;;;8.57;65.29;101415.91;5005307;28;20044;-72
2024/02/15 07:08:40;;;;;;;28.98;10.73;;;;;;;8.54;65.33;101409.03;5005257;28;20051;-75
2024/02/15 07:11:09;;;;;;;23.88;11.82;;;;;;;8.80;64.67;101410.19;5007749;28;20068;-72
2024/02/15 07:13:38;;;;;;;24.13;10.85;;;;;;;8.89;64.76;101403.91;4995930;28;20218;-68
2024/02/15 07:16:11;;;;;;;26.67;11.70;;;;;;;8.50;65.64;101415.19;4972121;28;20181;-69
2024/02/15 07:18:36;;;;;;;33.55;12.63;;;;;;;8.68;65.41;101418.28;4970233;28;21288;-68
2024/02/15 07:21:08;;;;;;;30.55;13.05;;;;;;;8.85;64.58;101415.28;5004250;28;20139;-67
2024/02/15 07:23:34;;;;;;;27.65;12.73;;;;;;;8.69;65.37;101409.56;4987617;28;20041;-68
2024/02/15 07:25:59;;;;;;;40.10;13.77;;;;;;;9.00;64.34;101421.88;4963485;28;20056;-68
2024/02/15 07:28:26;;;;;;;31.20;12.45;;;;;;;9.03;64.28;101413.97;4969779;28;20044;-69
2024/02/15 07:30:54;;;;;;;32.13;12.98;;;;;;;8.97;64.14;101415.00;4997397;28;20044;-67
2024/02/15 07:33:20;;;;;;;30.38;12.10;;;;;;;8.72;64.83;101410.38;5003270;28;20449;-68
2024/02/15 07:35:46;;;;;;;30.98;13.25;;;;;;;8.59;65.82;101419.34;5003781;28;20076;-69
2024/02/15 07:38:11;;;;;;;31.48;14.38;;;;;;;8.36;66.63;101415.53;4995848;28;20041;-69
2024/02/15 07:40:39;;;;;;;32.20;12.93;;;;;;;8.84;65.03;101408.38;4951111;28;20499;-69
2024/02/15 07:43:06;;;;;;;22.80;11.13;;;;;;;8.86;65.19;101414.41;5002663;28;20510;-67
2024/02/15 07:45:35;;;;;;;32.00;14.00;;;;;;;8.30;66.61;101417.41;4999037;28;20040;-68
2024/02/15 07:48:00;;;;;;;34.50;14.40;;;;;;;8.82;65.49;101421.44;5003445;28;20491;-68
2024/02/15 07:50:26;;;;;;;34.30;14.70;;;;;;;8.87;65.25;101418.72;4963111;28;20065;-67
2024/02/15 07:52:53;;;;;;;33.38;14.80;;;;;;;8.76;65.62;101405.94;4997581;28;20521;-67
2024/02/15 07:55:19;;;;;;;37.08;14.05;;;;;;;8.78;65.65;101414.59;5006599;28;20449;-68
2024/02/15 07:57:46;;;;;;;41.72;15.98;;;;;;;8.94;65.17;101415.94;4998825;28;20045;-68
2024/02/15 08:00:12;;;;;;;33.70;14.07;;;;;;;9.07;64.49;101420.84;5006885;28;20056;-69
2024/02/15 08:02:40;;;;;;;34.50;14.70;;;;;;;8.94;65.52;101409.84;4996286;28;20041;-68
2024/02/15 08:05:09;;;;;;;33.97;14.63;;;;;;;9.26;64.49;101414.28;5005296;28;20383;-67
2024/02/15 08:07:42;;;;;;;31.25;14.85;;;;;;;9.30;64.11;101415.06;4977558;28;20056;-65
2024/02/15 08:10:12;;;;;;;25.85;14.32;;;;;;;9.28;64.29;101412.47;4970934;28;20058;-67
2024/02/15 08:12:43;;;;;;;31.77;14.20;;;;;;;9.32;64.40;101410.63;4989239;28;20033;-68
2024/02/15 08:15:11;;;;;;;34.13;14.20;;;;;;;9.13;64.86;101410.25;4989465;28;20028;-68
2024/02/15 08:17:47;;;;;;;31.35;15.20;;;;;;;9.27;64.63;101408.16;4957882;28;20033;-64
2024/02/15 08:20:14;;;;;;;29.38;14.93;;;;;;;9.44;64.19;101412.94;5000890;28;20183;-69
2024/02/15 08:22:40;;;;;;;31.80;15.48;;;;;;;9.46;64.17;101411.13;4987210;28;20048;-67
2024/02/15 08:25:10;;;;;;;33.50;15.00;;;;;;;9.18;65.04;101405.78;4990217;28;20197;-69
2024/02/15 08:27:42;;;;;;;36.70;15.07;;;;;;;9.22;64.85;101403.97;4997707;28;20925;-67
2024/02/15 08:30:12;;;;;;;31.73;14.60;;;;;;;9.37;64.63;101407.03;4998142;28;21017;-67
2024/02/15 08:32:41;;;;;;;24.75;14.45;;;;;;;8.94;65.81;101413.34;4992112;28;20103;-66
2024/02/15 08:35:08;;;;;;;32.33;14.95;;;;;;;9.10;65.51;101397.31;4998442;28;20041;-68
2024/02/15 08:37:37;;;;;;;28.80;15.15;;;;;;;9.37;64.58;101404.41;4963139;28;20211;-68
2024/02/15 08:40:10;;;;;;;27.27;15.52;;;;;;;9.29;64.56;101401.13;4948499;28;20312;-69
2024/02/15 08:42:44;;;;;;;30.60;14.70;;;;;;;9.37;64.56;101396.59;4912170;28;20222;-68
2024/02/15 08:45:12;;;;;;;31.08;14.63;;;;;;;8.79;66.62;101398.06;4931263;28;20369;-65
2024/02/15 08:47:52;;;;;;;27.67;14.10;;;;;;;9.26;65.34;101389.94;4935914;28;20589;-66
2024/02/15 08:50:19;;;;;;;28.65;14.52;;;;;;;9.29;64.89;101400.28;4942364;28;20040;-66
2024/02/15 08:52:46;;;;;;;37.67;16.42;;;;;;;9.14;65.48;101388.50;4999723;28;20037;-68
2024/02/15 08:55:15;;;;;;;31.42;15.27;;;;;;;9.10;65.65;101387.72;5004355;28;20043;-69
2024/02/15 08:57:41;;;;;;;33.22;16.33;;;;;;;8.66;66.84;101391.41;4998426;28;20041;-69
2024/02/15 09:00:13;;;;;;;29.33;15.13;;;;;;;9.12;65.81;101383.34;5003994;28;20029;-68
2024/02/15 09:02:46;;;;;;;30.45;14.68;;;;;;;9.17;65.73;101391.03;4998586;28;20032;-68
2024/02/15 09:05:15;;;;;;;28.50;15.02;;;;;;;9.47;64.92;101378.06;4936326;28;20057;-69
2024/02/15 09:07:42;;;;;;;26.83;14.18;;;;;;;9.15;65.46;101382.41;4964856;28;20045;-68
2024/02/15 09:10:11;;;;;;;28.98;15.50;;;;;;;9.26;65.63;101384.72;5004341;28;20670;-68
2024/02/15 09:12:39;;;;;;;28.70;14.93;;;;;;;9.47;64.78;101388.50;4996923;28;20094;-68
2024/02/15 09:15:10;;;;;;;31.73;15.30;;;;;;;9.27;65.32;101389.88;5005362;28;20966;-68
2024/02/15 09:17:39;;;;;;;25.85;14.73;;;;;;;9.20;65.35;101383.13;4998398;28;20037;-68
2024/02/15 09:20:18;;;;;;;28.15;14.63;;;;;;;8.79;66.91;101390.25;5003759;28;20043;-68
2024/02/15 09:22:51;;;;;;;29.65;14.32;;;;;;;9.23;65.55;101385.66;4996750;28;20132;-68
2024/02/15 09:25:18;;;;;;;32.90;15.50;;;;;;;8.90;66.72;101393.44;5007293;28;20028;-67
2024/02/15 09:27:44;;;;;;;27.70;14.57;;;;;;;9.40;65.13;101380.00;4997768;28;20033;-66
2024/02/15 09:30:10;;;;;;;32.00;14.63;;;;;;;9.11;65.86;101380.75;5004015;28;20029;-66
2024/02/15 09:32:36;;;;;;;23.48;13.07;;;;;;;9.40;64.91;101378.22;4994584;28;20553;-67
2024/02/15 09:35:02;;;;;;;34.47;14.23;;;;;;;9.13;65.79;101381.56;5002196;28;20857;-67
2024/02/15 09:37:28;;;;;;;26.40;13.70;;;;;;;9.25;65.61;101383.84;4999735;28;20041;-68
2024/02/15 09:39:58;;;;;;;25.98;13.80;;;;;;;9.32;65.33;101377.59;4998416;28;20597;-68
2024/02/15 09:42:25;;;;;;;29.17;15.05;;;;;;;8.90;66.51;101377.81;4986071;28;20033;-68
2024/02/15 09:44:51;;;;;;;26.45;13.38;;;;;;;9.29;65.77;101382.88;5001366;28;21402;-66
2024/02/15 09:47:17;;;;;;;24.77;14.02;;;;;;;9.35;65.46;101380.13;4997162;28;20064;-67
2024/02/15 09:49:43;;;;;;;24.55;13.02;;;;;;;9.27;65.52;101387.28;4995482;28;21308;-68
2024/02/15 09:52:15;;;;;;;30.88;14.38;;;;;;;9.34;65.31;101373.19;4989746;28;20037;-66
2024/02/15 09:54:46;;;;;;;21.25;12.27;;;;;;;9.33;65.66;101375.84;4942503;28;20048;-65
2024/02/15 09:57:15;;;;;;;24.73;12.43;;;;;;;9.19;66.18;101378.81;4923032;28;20052;-69
2024/02/15 09:59:44;;;;;;;21.55;11.82;;;;;;;8.85;67.03;101373.59;4903766;28;20210;-66
2024/02/15 10:02:14;;;;;;;20.42;10.45;;;;;;;9.03;66.63;101372.25;4926461;28;20245;-64
2024/02/15 10:04:45;;;;;;;21.15;11.38;;;;;;;9.04;66.01;101368.78;4922586;28;20768;-67
2024/02/15 10:07:13;;;;;;;26.23;12.38;;;;;;;9.13;66.29;101368.53;4976087;28;20513;-67
2024/02/15 10:09:42;;;;;;;23.02;10.90;;;;;;;9.08;66.35;101365.19;5000952;28;20093;-66
2024/02/15 10:12:09;;;;;;;18.50;10.73;;;;;;;8.77;67.80;101365.97;5006693;28;20068;-67
2024/02/15 10:14:35;;;;;;;20.67;12.15;;;;;;;8.78;67.73;101359.84;5001648;28;20053;-64
2024/02/15 10:17:10;;;;;;;25.42;11.60;;;;;;;9.24;66.71;101365.66;5007182;28;20585;-65
2024/02/15 10:19:37;;;;;;;23.45;11.00;;;;;;;8.55;68.65;101363.84;4947654;28;20041;-66
2024/02/15 10:22:07;;;;;;;14.43;9.93;;;;;;;8.90;67.51;101364.78;4986433;28;20822;-66
2024/02/15 10:24:35;;;;;;;13.73;9.55;;;;;;;9.03;67.14;101369.66;4989902;28;20045;-66
2024/02/15 10:27:04;;;;;;;16.83;9.60;;;;;;;8.68;67.95;101371.38;4966400;28;20418;-67
2024/02/15 10:29:30;;;;;;;17.20;9.45;;;;;;;8.97;67.36;101378.50;4997491;28;20159;-65
2024/02/15 10:32:04;;;;;;;11.32;7.75;;;;;;;9.08;66.81;101379.09;4961310;28;21061;-66
2024/02/15 10:34:30;;;;;;;20.55;9.15;;;;;;;8.74;67.92;101368.66;4998487;28;20446;-67
2024/02/15 10:37:11;;;;;;;20.08;12.48;;;;;;;9.40;65.90;101370.41;5000614;28;21625;-66
2024/02/15 10:39:36;;;;;;;15.98;9.10;;;;;;;9.66;65.04;101363.63;4984454;28;20515;-68
2024/02/15 10:42:03;;;;;;;15.77;8.05;;;;;;;9.16;66.07;101371.06;4990394;28;20372;-68
2024/02/15 10:44:29;;;;;;;11.23;7.65;;;;;;;9.38;65.85;101376.56;5002903;28;20036;-68
2024/02/15 10:46:54;;;;;;;11.93;7.28;;;;;;;9.43;65.68;101366.00;5000469;28;21159;-68
2024/02/15 10:49:21;;;;;;;12.77;8.52;;;;;;;9.20;66.28;101370.09;5005792;28;20075;-68
2024/02/15 10:51:56;;;;;;;12.82;8.20;;;;;;;8.71;68.16;101376.53;4983746;28;20136;-67
2024/02/15 10:54:37;;;;;;;15.32;8.75;;;;;;;8.83;68.43;101372.75;4990083;28;20438;-68
2024/02/15 10:57:06;;;;;;;12.48;6.80;;;;;;;8.95;67.34;101359.44;5005696;28;20049;-67
2024/02/15 10:59:37;;;;;;;10.00;6.82;;;;;;;9.07;66.92;101358.25;5005926;28;20037;-67
2024/02/15 11:02:23;;;;;;;13.07;7.63;;;;;;;8.71;68.13;101358.28;5003010;28;20048;-69
2024/02/15 11:04:56;;;;;;;14.20;7.43;;;;;;;9.02;67.01;101354.91;4996565;28;20765;-69
2024/02/15 11:07:29;;;;;;;9.98;6.60;;;;;;;9.13;67.31;101350.28;4990582;28;20102;-69
2024/02/15 11:09:56;;;;;;;7.78;6.25;;;;;;;9.14;67.05;101355.47;4985990;28;20061;-67
2024/02/15 11:12:23;;;;;;;11.02;6.00;;;;;;;9.16;67.06;101353.69;4974192;28;20320;-69
2024/02/15 11:14:51;;;;;;;12.82;7.72;;;;;;;9.63;65.62;101350.63;4984187;28;21727;-67
2024/02/15 11:17:43;;;;;;;10.25;6.10;;;;;;;9.64;65.82;101349.75;4989615;28;20127;-67
2024/02/15 11:20:10;;;;;;;13.48;6.72;;;;;;;9.62;65.21;101340.25;4987853;28;20094;-66
2024/02/15 11:22:37;;;;;;;12.13;7.72;;;;;;;9.29;66.07;101345.50;5005283;28;20045;-66
2024/02/15 11:25:11;;;;;;;10.32;6.32;;;;;;;9.53;65.33;101341.38;4997490;28;20049;-68
2024/02/15 11:27:39;;;;;;;8.43;6.13;;;;;;;9.29;66.17;101348.97;4987755;28;20044;-68
2024/02/15 11:30:20;;;;;;;12.23;6.78;;;;;;;9.85;64.96;101342.22;5005222;28;20037;-67
2024/02/15 11:32:50;;;;;;;11.87;6.63;;;;;;;9.64;65.38;101347.16;4996777;28;20032;-67
2024/02/15 11:35:24;;;;;;;9.52;6.47;;;;;;;9.47;65.65;101347.59;4990335;28;20279;-66
2024/02/15 11:37:59;;;;;;;11.43;6.50;;;;;;;9.53;65.99;101346.59;4996396;28;20036;-65